Time,TemperatureF,DewpointF,PressureIn,WindDirection,WindDirectionDegrees,WindSpeedMPH,WindSpeedGustMPH,Humidity,HourlyPrecipIn,Conditions,Clouds,dailyrainin,SoftwareType,DateUTC
2013-02-15 00:01:00,17.0,11.0,-100.00,WNW,284,15.0,18.0,80,0.00,,,-99.99,,2013-02-15 00:01:00,
2013-02-15 00:11:00,17.0,11.0,-100.00,WNW,282,14.0,18.0,79,0.00,,,-99.99,,2013-02-15 00:11:00,
2013-02-15 00:21:00,16.0,10.0,-100.00,WNW,288,12.0,15.0,77,0.00,,,-99.99,,2013-02-15 00:21:00,
2013-02-15 00:31:00,16.0,10.0,-100.00,WNW,287,12.0,16.0,78,0.00,,,-99.99,,2013-02-15 00:31:00,
2013-02-15 00:41:00,16.0,10.0,-100.00,WNW,285,12.0,15.0,78,0.00,,,-99.99,,2013-02-15 00:41:00,
2013-02-15 00:51:00,16.0,10.0,-100.00,WNW,285,12.0,15.0,78,0.00,,,-99.99,,2013-02-15 00:51:00,
2013-02-15 01:02:00,15.0,10.0,-100.00,WNW,284,12.0,15.0,78,0.00,,,-99.99,,2013-02-15 01:02:00,
2013-02-15 01:11:00,15.0,9.0,-100.00,WNW,284,12.0,15.0,77,0.00,,,-99.99,,2013-02-15 01:11:00,
2013-02-15 01:21:00,15.0,9.0,-100.00,WNW,295,12.0,15.0,79,0.00,,,-99.99,,2013-02-15 01:21:00,
2013-02-15 01:31:00,14.0,9.0,-100.00,NW,306,9.0,12.0,81,0.00,,,-99.99,,2013-02-15 01:31:00,
2013-02-15 01:41:00,14.0,9.0,-100.00,NW,306,9.0,11.0,81,0.00,,,-99.99,,2013-02-15 01:41:00,
2013-02-15 01:51:00,14.0,9.0,-100.00,WNW,301,9.0,11.0,82,0.00,,,-99.99,,2013-02-15 01:51:00,
2013-02-15 02:01:00,14.0,9.0,-100.00,WNW,294,9.0,11.0,82,0.00,,,-99.99,,2013-02-15 02:01:00,
2013-02-15 02:11:00,14.0,9.0,-100.00,WNW,284,7.0,10.0,81,0.00,,,-99.99,,2013-02-15 02:11:00,
2013-02-15 02:21:00,14.0,9.0,-100.00,West,270,6.0,7.0,80,0.00,,,-99.99,,2013-02-15 02:21:00,
2013-02-15 02:31:00,15.0,9.0,-100.00,West,261,7.0,9.0,79,0.00,,,-99.99,,2013-02-15 02:31:00,
2013-02-15 02:41:00,15.0,9.0,-100.00,West,265,7.0,10.0,80,0.00,,,-99.99,,2013-02-15 02:41:00,
2013-02-15 02:52:00,14.0,10.0,-100.00,West,265,6.0,9.0,84,0.00,,,-99.99,,2013-02-15 02:52:00,
2013-02-15 03:02:00,14.0,11.0,-100.00,West,270,7.0,9.0,85,0.00,,,-99.99,,2013-02-15 03:02:00,
2013-02-15 03:21:00,14.0,11.0,-100.00,West,278,7.0,9.0,89,0.04,,,-99.99,,2013-02-15 03:21:00,
2013-02-15 03:32:00,14.0,12.0,-100.00,West,278,9.0,11.0,91,0.01,,,-99.99,,2013-02-15 03:32:00,
2013-02-15 03:42:00,14.0,12.0,-100.00,West,280,9.0,11.0,92,0.01,,,-99.99,,2013-02-15 03:42:00,
2013-02-15 03:51:00,14.0,12.0,-100.00,West,278,7.0,10.0,92,0.01,,,-99.99,,2013-02-15 03:51:00,
2013-02-15 04:01:00,14.0,12.0,-100.00,WNW,285,9.0,11.0,92,0.01,,,-99.99,,2013-02-15 04:01:00,
2013-02-15 04:11:00,14.0,12.0,-100.00,WNW,287,8.0,10.0,92,0.01,,,-99.99,,2013-02-15 04:11:00,
2013-02-15 04:21:00,14.0,12.0,-100.00,WNW,298,7.0,9.0,93,0.01,,,-99.99,,2013-02-15 04:21:00,
2013-02-15 04:32:00,13.0,12.0,-100.00,WNW,299,7.0,9.0,93,0.00,,,-99.99,,2013-02-15 04:32:00,
2013-02-15 04:42:00,13.0,12.0,-100.00,WNW,299,6.0,8.0,93,0.01,,,-99.99,,2013-02-15 04:42:00,
2013-02-15 04:51:00,13.0,12.0,-100.00,WNW,302,6.0,7.0,93,0.03,,,-99.99,,2013-02-15 04:51:00,
2013-02-15 05:02:00,13.0,12.0,-100.00,WNW,288,5.0,7.0,93,0.03,,,-99.99,,2013-02-15 05:02:00,
2013-02-15 05:11:00,13.0,12.0,-100.00,West,261,4.0,6.0,93,0.03,,,-99.99,,2013-02-15 05:11:00,
2013-02-15 05:22:00,13.0,12.0,-100.00,West,265,4.0,6.0,93,0.01,,,-99.99,,2013-02-15 05:22:00,
2013-02-15 05:32:00,13.0,11.0,-100.00,West,267,1.0,4.0,93,0.01,,,-99.99,,2013-02-15 05:32:00,
2013-02-15 05:41:00,13.0,11.0,-100.00,West,267,1.0,2.0,93,0.01,,,-99.99,,2013-02-15 05:41:00,
2013-02-15 05:52:00,13.0,11.0,-100.00,WSW,240,1.0,3.0,93,0.01,,,-99.99,,2013-02-15 05:52:00,
2013-02-15 06:02:00,13.0,11.0,-100.00,SSW,195,1.0,2.0,93,0.00,,,-99.99,,2013-02-15 06:02:00,
2013-02-15 06:11:00,13.0,12.0,-100.00,SSE,168,1.0,2.0,93,0.00,,,-99.99,,2013-02-15 06:11:00,
2013-02-15 06:21:00,13.0,11.0,-100.00,ESE,116,1.0,2.0,93,0.00,,,-99.99,,2013-02-15 06:21:00,
2013-02-15 06:31:00,13.0,11.0,-100.00,East,100,1.0,2.0,92,0.00,,,-99.99,,2013-02-15 06:31:00,
2013-02-15 06:42:00,13.0,11.0,-100.00,East,82,1.0,2.0,92,0.00,,,-99.99,,2013-02-15 06:42:00,
2013-02-15 06:51:00,13.0,11.0,-100.00,ESE,123,1.0,4.0,93,0.00,,,-99.99,,2013-02-15 06:51:00,
2013-02-15 07:01:00,12.0,11.0,-100.00,West,264,2.0,4.0,92,0.00,,,-99.99,,2013-02-15 07:01:00,
2013-02-15 07:11:00,12.0,10.0,-100.00,North,4,0.0,3.0,92,0.00,,,-99.99,,2013-02-15 07:11:00,
2013-02-15 07:21:00,10.0,8.0,-100.00,North,359,6.0,9.0,91,0.00,,,-99.99,,2013-02-15 07:21:00,
2013-02-15 07:31:00,11.0,9.0,-100.00,North,8,5.0,12.0,91,0.00,,,-99.99,,2013-02-15 07:31:00,
2013-02-15 07:41:00,11.0,9.0,-100.00,NE,52,4.0,7.0,92,0.00,,,-99.99,,2013-02-15 07:41:00,
2013-02-15 07:52:00,13.0,11.0,-100.00,ENE,64,1.0,4.0,93,0.00,,,-99.99,,2013-02-15 07:52:00,
2013-02-15 08:01:00,14.0,12.0,-100.00,WSW,247,1.0,4.0,92,0.00,,,-99.99,,2013-02-15 08:01:00,
2013-02-15 08:11:00,16.0,14.0,-100.00,WNW,285,5.0,14.0,92,0.00,,,-99.99,,2013-02-15 08:11:00,
2013-02-15 08:21:00,18.0,13.0,-100.00,WSW,243,14.0,18.0,80,0.00,,,-99.99,,2013-02-15 08:21:00,
2013-02-15 08:31:00,18.0,12.0,-100.00,WSW,243,14.0,19.0,78,0.00,,,-99.99,,2013-02-15 08:31:00,
2013-02-15 08:41:00,18.0,12.0,-100.00,WSW,241,14.0,21.0,76,0.00,,,-99.99,,2013-02-15 08:41:00,
2013-02-15 08:52:00,18.0,11.0,-100.00,WSW,240,14.0,18.0,73,0.00,,,-99.99,,2013-02-15 08:52:00,
2013-02-15 09:01:00,18.0,11.0,-100.00,WSW,237,15.0,21.0,72,0.00,,,-99.99,,2013-02-15 09:01:00,
2013-02-15 09:12:00,18.0,11.0,-100.00,SW,236,15.0,21.0,72,0.00,,,-99.99,,2013-02-15 09:12:00,
2013-02-15 09:21:00,18.0,11.0,-100.00,SW,230,16.0,20.0,72,0.00,,,-99.99,,2013-02-15 09:21:00,
2013-02-15 09:32:00,18.0,10.0,-100.00,SW,232,16.0,22.0,71,0.00,,,-99.99,,2013-02-15 09:32:00,
2013-02-15 09:41:00,18.0,11.0,-100.00,SW,232,17.0,24.0,72,0.00,,,-99.99,,2013-02-15 09:41:00,
2013-02-15 09:51:00,18.0,11.0,-100.00,SW,232,19.0,25.0,71,0.00,,,-99.99,,2013-02-15 09:51:00,
2013-02-15 10:01:00,18.0,11.0,-100.00,SW,232,17.0,24.0,73,0.00,,,-99.99,,2013-02-15 10:01:00,
2013-02-15 10:11:00,18.0,11.0,-100.00,SW,233,17.0,26.0,73,0.00,,,-99.99,,2013-02-15 10:11:00,
2013-02-15 10:21:00,18.0,11.0,-100.00,SW,230,20.0,32.0,72,0.00,,,-99.99,,2013-02-15 10:21:00,
2013-02-15 10:31:00,18.0,11.0,-100.00,SW,232,19.0,27.0,74,0.00,,,-99.99,,2013-02-15 10:31:00,
2013-02-15 10:41:00,17.0,11.0,-100.00,SW,233,18.0,23.0,75,0.00,,,-99.99,,2013-02-15 10:41:00,
2013-02-15 10:51:00,17.0,11.0,-100.00,WSW,237,18.0,22.0,77,0.00,,,-99.99,,2013-02-15 10:51:00,
2013-02-15 11:01:00,17.0,12.0,-100.00,WSW,237,18.0,22.0,80,0.00,,,-99.99,,2013-02-15 11:01:00,
2013-02-15 11:11:00,17.0,12.0,-100.00,SW,236,18.0,22.0,82,0.00,,,-99.99,,2013-02-15 11:11:00,
2013-02-15 11:22:00,17.0,13.0,-100.00,SW,234,17.0,23.0,84,0.00,,,-99.99,,2013-02-15 11:22:00,
2013-02-15 11:32:00,16.0,12.0,-100.00,SW,232,17.0,22.0,83,0.00,,,-99.99,,2013-02-15 11:32:00,
2013-02-15 11:42:00,17.0,12.0,-100.00,SW,232,17.0,22.0,82,0.00,,,-99.99,,2013-02-15 11:42:00,
2013-02-15 11:52:00,17.0,11.0,-100.00,SW,233,18.0,24.0,80,0.00,,,-99.99,,2013-02-15 11:52:00,
2013-02-15 12:02:00,17.0,11.0,-100.00,SW,234,17.0,22.0,78,0.00,,,-99.99,,2013-02-15 12:02:00,
2013-02-15 12:11:00,17.0,11.0,-100.00,SW,233,19.0,26.0,77,0.00,,,-99.99,,2013-02-15 12:11:00,
2013-02-15 12:21:00,17.0,11.0,-100.00,SW,233,19.0,25.0,77,0.00,,,-99.99,,2013-02-15 12:21:00,
2013-02-15 12:32:00,17.0,11.0,-100.00,SW,232,19.0,26.0,75,0.00,,,-99.99,,2013-02-15 12:32:00,
2013-02-15 12:42:00,17.0,11.0,-100.00,SW,236,19.0,24.0,75,0.00,,,-99.99,,2013-02-15 12:42:00,
2013-02-15 12:52:00,17.0,11.0,-100.00,SW,234,21.0,29.0,75,0.00,,,-99.99,,2013-02-15 12:52:00,
2013-02-15 13:02:00,17.0,11.0,-100.00,WSW,237,19.0,26.0,75,0.00,,,-99.99,,2013-02-15 13:02:00,
2013-02-15 13:11:00,17.0,12.0,-100.00,WSW,237,17.0,22.0,80,0.00,,,-99.99,,2013-02-15 13:11:00,
2013-02-15 13:21:00,17.0,12.0,-100.00,WSW,239,19.0,26.0,82,0.00,,,-99.99,,2013-02-15 13:21:00,
2013-02-15 13:32:00,17.0,12.0,-100.00,WSW,241,19.0,23.0,82,0.00,,,-99.99,,2013-02-15 13:32:00,
2013-02-15 13:41:00,17.0,12.0,-100.00,WSW,244,19.0,24.0,83,0.00,,,-99.99,,2013-02-15 13:41:00,
2013-02-15 13:52:00,17.0,12.0,-100.00,WSW,240,19.0,24.0,82,0.00,,,-99.99,,2013-02-15 13:52:00,
2013-02-15 14:01:00,17.0,12.0,-100.00,WSW,241,19.0,24.0,81,0.00,,,-99.99,,2013-02-15 14:01:00,
2013-02-15 14:11:00,16.0,12.0,-100.00,WSW,243,19.0,24.0,82,0.00,,,-99.99,,2013-02-15 14:11:00,
2013-02-15 14:21:00,16.0,12.0,-100.00,WSW,246,20.0,24.0,84,0.00,,,-99.99,,2013-02-15 14:21:00,
2013-02-15 14:32:00,16.0,12.0,-100.00,WSW,241,20.0,24.0,84,0.00,,,-99.99,,2013-02-15 14:32:00,
2013-02-15 14:41:00,17.0,11.0,-100.00,WSW,239,19.0,24.0,80,0.00,,,-99.99,,2013-02-15 14:41:00,
2013-02-15 14:52:00,16.0,11.0,-100.00,SW,232,17.0,24.0,80,0.00,,,-99.99,,2013-02-15 14:52:00,
2013-02-15 15:01:00,17.0,9.0,-100.00,SW,234,18.0,23.0,73,0.00,,,-99.99,,2013-02-15 15:01:00,
2013-02-15 15:11:00,17.0,9.0,-100.00,WSW,240,20.0,26.0,72,0.00,,,-99.99,,2013-02-15 15:11:00,
2013-02-15 15:21:00,17.0,9.0,-100.00,WSW,240,21.0,27.0,72,0.00,,,-99.99,,2013-02-15 15:21:00,
2013-02-15 15:32:00,17.0,9.0,-100.00,WSW,243,19.0,24.0,70,0.00,,,-99.99,,2013-02-15 15:32:00,
2013-02-15 15:42:00,17.0,9.0,-100.00,WSW,241,22.0,27.0,69,0.00,,,-99.99,,2013-02-15 15:42:00,
2013-02-15 15:51:00,17.0,9.0,-100.00,WSW,243,23.0,29.0,69,0.00,,,-99.99,,2013-02-15 15:51:00,
2013-02-15 16:01:00,17.0,9.0,-100.00,WSW,244,24.0,30.0,69,0.00,,,-99.99,,2013-02-15 16:01:00,
2013-02-15 16:11:00,17.0,9.0,-100.00,WSW,243,24.0,32.0,70,0.00,,,-99.99,,2013-02-15 16:11:00,
2013-02-15 16:22:00,18.0,9.0,-100.00,WSW,240,24.0,35.0,68,0.00,,,-99.99,,2013-02-15 16:22:00,
2013-02-15 16:32:00,18.0,10.0,-100.00,WSW,247,28.0,34.0,71,0.00,,,-99.99,,2013-02-15 16:32:00,
2013-02-15 16:42:00,18.0,10.0,-100.00,WSW,246,27.0,34.0,71,0.00,,,-99.99,,2013-02-15 16:42:00,
2013-02-15 16:51:00,18.0,10.0,-100.00,WSW,248,27.0,35.0,72,0.00,,,-99.99,,2013-02-15 16:51:00,
2013-02-15 17:01:00,18.0,9.0,-100.00,WSW,247,29.0,36.0,69,0.00,,,-99.99,,2013-02-15 17:01:00,
2013-02-15 17:11:00,18.0,9.0,-100.00,WSW,243,29.0,37.0,68,0.00,,,-99.99,,2013-02-15 17:11:00,
2013-02-15 17:21:00,18.0,10.0,-100.00,WSW,248,29.0,38.0,70,0.00,,,-99.99,,2013-02-15 17:21:00,
2013-02-15 17:32:00,18.0,10.0,-100.00,WSW,247,31.0,40.0,70,0.00,,,-99.99,,2013-02-15 17:32:00,
2013-02-15 17:52:00,18.0,11.0,-100.00,WSW,248,29.0,40.0,71,0.00,,,-99.99,,2013-02-15 17:52:00,
2013-02-15 18:01:00,18.0,10.0,-100.00,WSW,247,31.0,38.0,69,0.00,,,-99.99,,2013-02-15 18:01:00,
2013-02-15 18:11:00,19.0,11.0,-100.00,WSW,247,29.0,37.0,71,0.00,,,-99.99,,2013-02-15 18:11:00,
2013-02-15 18:21:00,19.0,11.0,-100.00,WSW,248,30.0,39.0,71,0.00,,,-99.99,,2013-02-15 18:21:00,
2013-02-15 18:32:00,19.0,11.0,-100.00,WSW,253,30.0,39.0,69,0.00,,,-99.99,,2013-02-15 18:32:00,
2013-02-15 18:41:00,19.0,11.0,-100.00,WSW,250,29.0,37.0,69,0.00,,,-99.99,,2013-02-15 18:41:00,
2013-02-15 18:52:00,19.0,11.0,-100.00,WSW,248,30.0,37.0,69,0.00,,,-99.99,,2013-02-15 18:52:00,
2013-02-15 19:01:00,19.0,11.0,-100.00,WSW,251,30.0,35.0,69,0.00,,,-99.99,,2013-02-15 19:01:00,
2013-02-15 19:11:00,19.0,12.0,-100.00,WSW,251,30.0,37.0,72,0.00,,,-99.99,,2013-02-15 19:11:00,
2013-02-15 19:22:00,19.0,12.0,-100.00,WSW,250,30.0,41.0,72,0.00,,,-99.99,,2013-02-15 19:22:00,
2013-02-15 19:32:00,19.0,13.0,-100.00,WSW,256,29.0,37.0,75,0.00,,,-99.99,,2013-02-15 19:32:00,
2013-02-15 19:41:00,19.0,12.0,-100.00,WSW,257,29.0,34.0,74,0.00,,,-99.99,,2013-02-15 19:41:00,
2013-02-15 19:51:00,20.0,13.0,-100.00,WSW,254,30.0,40.0,74,0.00,,,-99.99,,2013-02-15 19:51:00,
2013-02-15 20:01:00,20.0,15.0,-100.00,WSW,254,30.0,37.0,78,0.00,,,-99.99,,2013-02-15 20:01:00,
2013-02-15 20:11:00,20.0,12.0,-100.00,WSW,254,30.0,39.0,72,0.00,,,-99.99,,2013-02-15 20:11:00,
2013-02-15 20:21:00,20.0,13.0,-100.00,WSW,253,29.0,37.0,73,0.00,,,-99.99,,2013-02-15 20:21:00,
2013-02-15 20:32:00,20.0,12.0,-100.00,WSW,250,30.0,37.0,69,0.00,,,-99.99,,2013-02-15 20:32:00,
2013-02-15 20:42:00,20.0,13.0,-100.00,WSW,251,27.0,35.0,72,0.00,,,-99.99,,2013-02-15 20:42:00,
2013-02-15 20:52:00,20.0,11.0,-100.00,WSW,250,27.0,34.0,68,0.00,,,-99.99,,2013-02-15 20:52:00,
2013-02-15 21:01:00,21.0,12.0,-100.00,WSW,251,29.0,35.0,67,0.00,,,-99.99,,2013-02-15 21:01:00,
2013-02-15 21:11:00,21.0,12.0,-100.00,WSW,251,29.0,35.0,68,0.00,,,-99.99,,2013-02-15 21:11:00,
2013-02-15 21:21:00,21.0,12.0,-100.00,WSW,248,24.0,31.0,69,0.00,,,-99.99,,2013-02-15 21:21:00,
2013-02-15 21:31:00,22.0,13.0,-100.00,WSW,248,22.0,29.0,69,0.00,,,-99.99,,2013-02-15 21:31:00,
2013-02-15 21:42:00,22.0,14.0,-100.00,WSW,247,23.0,30.0,72,0.00,,,-99.99,,2013-02-15 21:42:00,
2013-02-15 21:51:00,22.0,13.0,-100.00,WSW,247,23.0,29.0,70,0.00,,,-99.99,,2013-02-15 21:51:00,
2013-02-15 22:02:00,21.0,13.0,-100.00,WSW,244,24.0,32.0,70,0.00,,,-99.99,,2013-02-15 22:02:00,
2013-02-15 22:11:00,22.0,13.0,-100.00,WSW,246,21.0,27.0,69,0.00,,,-99.99,,2013-02-15 22:11:00,
2013-02-15 22:21:00,22.0,12.0,-100.00,WSW,246,23.0,31.0,65,0.00,,,-99.99,,2013-02-15 22:21:00,
2013-02-15 22:31:00,22.0,13.0,-100.00,WSW,244,24.0,34.0,68,0.00,,,-99.99,,2013-02-15 22:31:00,
2013-02-15 22:41:00,22.0,13.0,-100.00,WSW,243,21.0,26.0,66,0.00,,,-99.99,,2013-02-15 22:41:00,
2013-02-15 22:51:00,22.0,13.0,-100.00,SW,236,21.0,30.0,67,0.00,,,-99.99,,2013-02-15 22:51:00,
2013-02-15 23:02:00,22.0,11.0,-100.00,SW,232,24.0,34.0,64,0.00,,,-99.99,,2013-02-15 23:02:00,
2013-02-15 23:11:00,22.0,12.0,-100.00,SW,234,23.0,32.0,65,0.00,,,-99.99,,2013-02-15 23:11:00,
2013-02-15 23:21:00,22.0,11.0,-100.00,WSW,243,23.0,32.0,61,0.00,,,-99.99,,2013-02-15 23:21:00,
2013-02-15 23:31:00,22.0,11.0,-100.00,SW,233,23.0,34.0,61,0.00,,,-99.99,,2013-02-15 23:31:00,
2013-02-15 23:42:00,22.0,10.0,-100.00,SW,233,25.0,34.0,60,0.00,,,-99.99,,2013-02-15 23:42:00,
2013-02-15 23:52:00,22.0,10.0,-100.00,SW,229,27.0,37.0,61,0.00,,,-99.99,,2013-02-15 23:52:00,